sensor_id;sensor_type;location;lat;lon;timestamp;P1;durP1;ratioP1;P2;durP2;ratioP2
40611;SDS011;26317;44.894;20.286;2022-12-07T00:02:34;30.83;;;21.33;;
40611;SDS011;26317;44.894;20.286;2022-12-07T00:05:08;34.78;;;23.35;;
40611;SDS011;26317;44.894;20.286;2022-12-07T00:07:39;31.23;;;22.15;;
40611;SDS011;26317;44.894;20.286;2022-12-07T00:10:11;32.78;;;21.80;;
40611;SDS011;26317;44.894;20.286;2022-12-07T00:12:42;33.08;;;21.50;;
40611;SDS011;26317;44.894;20.286;2022-12-07T00:15:30;31.80;;;21.58;;
40611;SDS011;26317;44.894;20.286;2022-12-07T00:18:08;29.67;;;19.85;;
40611;SDS011;26317;44.894;20.286;2022-12-07T00:20:43;26.88;;;19.02;;
40611;SDS011;26317;44.894;20.286;2022-12-07T00:23:13;26.70;;;19.10;;
40611;SDS011;26317;44.894;20.286;2022-12-07T00:25:50;26.30;;;17.55;;
40611;SDS011;26317;44.894;20.286;2022-12-07T00:28:20;22.90;;;16.02;;
40611;SDS011;26317;44.894;20.286;2022-12-07T00:30:53;21.25;;;16.50;;
40611;SDS011;26317;44.894;20.286;2022-12-07T00:33:38;26.98;;;17.15;;
40611;SDS011;26317;44.894;20.286;2022-12-07T00:36:10;24.67;;;17.17;;
40611;SDS011;26317;44.894;20.286;2022-12-07T00:38:55;22.70;;;16.73;;
40611;SDS011;26317;44.894;20.286;2022-12-07T00:41:37;23.60;;;16.33;;
40611;SDS011;26317;44.894;20.286;2022-12-07T00:44:23;25.08;;;15.02;;
40611;SDS011;26317;44.894;20.286;2022-12-07T00:47:05;24.85;;;15.75;;
40611;SDS011;26317;44.894;20.286;2022-12-07T00:49:38;25.88;;;15.10;;
40611;SDS011;26317;44.894;20.286;2022-12-07T00:52:12;23.33;;;16.33;;
40611;SDS011;26317;44.894;20.286;2022-12-07T00:54:53;22.67;;;14.20;;
40611;SDS011;26317;44.894;20.286;2022-12-07T00:57:24;22.25;;;15.30;;
40611;SDS011;26317;44.894;20.286;2022-12-07T01:00:02;26.50;;;15.10;;
40611;SDS011;26317;44.894;20.286;2022-12-07T01:02:44;21.02;;;13.88;;
40611;SDS011;26317;44.894;20.286;2022-12-07T01:05:15;20.23;;;13.85;;
40611;SDS011;26317;44.894;20.286;2022-12-07T01:07:52;19.20;;;12.23;;
40611;SDS011;26317;44.894;20.286;2022-12-07T01:10:27;22.42;;;12.15;;
40611;SDS011;26317;44.894;20.286;2022-12-07T01:13:20;16.63;;;11.70;;
40611;SDS011;26317;44.894;20.286;2022-12-07T01:15:55;18.40;;;11.95;;
40611;SDS011;26317;44.894;20.286;2022-12-07T01:18:38;24.88;;;12.40;;
40611;SDS011;26317;44.894;20.286;2022-12-07T01:21:19;16.98;;;11.25;;
40611;SDS011;26317;44.894;20.286;2022-12-07T01:23:52;17.58;;;12.20;;
40611;SDS011;26317;44.894;20.286;2022-12-07T01:26:36;20.33;;;13.00;;
40611;SDS011;26317;44.894;20.286;2022-12-07T01:29:08;15.82;;;12.02;;
40611;SDS011;26317;44.894;20.286;2022-12-07T01:31:42;17.58;;;12.93;;
40611;SDS011;26317;44.894;20.286;2022-12-07T01:34:15;19.23;;;12.32;;
40611;SDS011;26317;44.894;20.286;2022-12-07T01:36:48;21.20;;;13.68;;
40611;SDS011;26317;44.894;20.286;2022-12-07T01:39:19;18.83;;;13.85;;
40611;SDS011;26317;44.894;20.286;2022-12-07T01:41:53;21.80;;;13.85;;
40611;SDS011;26317;44.894;20.286;2022-12-07T01:44:30;22.50;;;13.98;;
40611;SDS011;26317;44.894;20.286;2022-12-07T01:47:03;24.63;;;14.82;;
40611;SDS011;26317;44.894;20.286;2022-12-07T01:52:11;23.30;;;15.63;;
40611;SDS011;26317;44.894;20.286;2022-12-07T01:54:56;23.70;;;15.02;;
40611;SDS011;26317;44.894;20.286;2022-12-07T01:57:38;23.38;;;14.73;;
40611;SDS011;26317;44.894;20.286;2022-12-07T02:00:30;23.08;;;15.57;;
40611;SDS011;26317;44.894;20.286;2022-12-07T02:03:03;18.40;;;14.73;;
40611;SDS011;26317;44.894;20.286;2022-12-07T02:05:57;23.35;;;15.68;;
40611;SDS011;26317;44.894;20.286;2022-12-07T02:08:36;22.67;;;15.43;;
40611;SDS011;26317;44.894;20.286;2022-12-07T02:11:15;20.25;;;15.38;;
40611;SDS011;26317;44.894;20.286;2022-12-07T02:13:53;23.40;;;15.13;;
40611;SDS011;26317;44.894;20.286;2022-12-07T02:16:25;22.98;;;16.08;;
40611;SDS011;26317;44.894;20.286;2022-12-07T02:22:31;22.92;;;15.90;;
40611;SDS011;26317;44.894;20.286;2022-12-07T02:25:22;21.65;;;14.73;;
40611;SDS011;26317;44.894;20.286;2022-12-07T02:28:25;23.33;;;16.33;;
40611;SDS011;26317;44.894;20.286;2022-12-07T02:31:15;26.60;;;17.73;;
40611;SDS011;26317;44.894;20.286;2022-12-07T02:34:02;20.85;;;15.80;;
40611;SDS011;26317;44.894;20.286;2022-12-07T02:36:40;25.58;;;16.95;;
40611;SDS011;26317;44.894;20.286;2022-12-07T02:39:43;23.88;;;15.93;;
40611;SDS011;26317;44.894;20.286;2022-12-07T02:42:23;25.52;;;15.35;;
40611;SDS011;26317;44.894;20.286;2022-12-07T02:45:03;20.00;;;14.27;;
40611;SDS011;26317;44.894;20.286;2022-12-07T02:47:51;21.70;;;14.27;;
40611;SDS011;26317;44.894;20.286;2022-12-07T02:50:26;20.60;;;14.38;;
40611;SDS011;26317;44.894;20.286;2022-12-07T02:56:05;19.58;;;12.82;;
40611;SDS011;26317;44.894;20.286;2022-12-07T02:58:54;17.10;;;12.32;;
40611;SDS011;26317;44.894;20.286;2022-12-07T03:01:43;15.45;;;11.32;;
40611;SDS011;26317;44.894;20.286;2022-12-07T03:04:32;10.98;;;9.25;;
40611;SDS011;26317;44.894;20.286;2022-12-07T03:07:33;12.40;;;9.68;;
40611;SDS011;26317;44.894;20.286;2022-12-07T03:10:17;13.82;;;9.50;;
40611;SDS011;26317;44.894;20.286;2022-12-07T03:13:03;12.15;;;9.55;;
40611;SDS011;26317;44.894;20.286;2022-12-07T03:15:44;13.20;;;9.90;;
40611;SDS011;26317;44.894;20.286;2022-12-07T03:21:05;11.27;;;9.57;;
40611;SDS011;26317;44.894;20.286;2022-12-07T03:23:42;14.73;;;9.90;;
40611;SDS011;26317;44.894;20.286;2022-12-07T03:26:21;11.02;;;9.25;;
40611;SDS011;26317;44.894;20.286;2022-12-07T03:28:54;15.93;;;10.85;;
40611;SDS011;26317;44.894;20.286;2022-12-07T03:31:28;14.50;;;11.05;;
40611;SDS011;26317;44.894;20.286;2022-12-07T03:34:05;17.77;;;12.60;;
40611;SDS011;26317;44.894;20.286;2022-12-07T03:37:02;16.30;;;12.55;;
40611;SDS011;26317;44.894;20.286;2022-12-07T03:39:46;15.98;;;12.05;;
40611;SDS011;26317;44.894;20.286;2022-12-07T03:42:34;18.98;;;13.25;;
40611;SDS011;26317;44.894;20.286;2022-12-07T03:45:10;18.92;;;13.73;;
40611;SDS011;26317;44.894;20.286;2022-12-07T03:47:46;19.23;;;14.00;;
40611;SDS011;26317;44.894;20.286;2022-12-07T03:50:28;19.73;;;15.05;;
40611;SDS011;26317;44.894;20.286;2022-12-07T03:53:22;16.80;;;13.30;;
40611;SDS011;26317;44.894;20.286;2022-12-07T03:56:04;17.27;;;12.68;;
40611;SDS011;26317;44.894;20.286;2022-12-07T03:58:42;14.98;;;11.73;;
40611;SDS011;26317;44.894;20.286;2022-12-07T04:01:17;14.82;;;12.15;;
40611;SDS011;26317;44.894;20.286;2022-12-07T04:03:49;18.27;;;13.55;;
40611;SDS011;26317;44.894;20.286;2022-12-07T04:06:23;17.20;;;13.20;;
40611;SDS011;26317;44.894;20.286;2022-12-07T04:09:08;19.83;;;15.63;;
40611;SDS011;26317;44.894;20.286;2022-12-07T04:12:05;19.27;;;15.40;;
40611;SDS011;26317;44.894;20.286;2022-12-07T04:14:38;16.85;;;14.23;;
40611;SDS011;26317;44.894;20.286;2022-12-07T04:17:14;20.25;;;15.60;;
40611;SDS011;26317;44.894;20.286;2022-12-07T04:19:49;18.38;;;15.07;;
40611;SDS011;26317;44.894;20.286;2022-12-07T04:22:34;18.50;;;14.82;;
40611;SDS011;26317;44.894;20.286;2022-12-07T04:25:24;19.33;;;15.95;;
40611;SDS011;26317;44.894;20.286;2022-12-07T04:27:56;18.30;;;15.77;;
40611;SDS011;26317;44.894;20.286;2022-12-07T04:30:37;19.00;;;15.50;;
40611;SDS011;26317;44.894;20.286;2022-12-07T04:33:11;23.15;;;17.20;;
40611;SDS011;26317;44.894;20.286;2022-12-07T04:35:47;21.67;;;17.40;;
40611;SDS011;26317;44.894;20.286;2022-12-07T04:38:22;25.38;;;17.70;;
40611;SDS011;26317;44.894;20.286;2022-12-07T04:41:08;23.05;;;18.25;;
40611;SDS011;26317;44.894;20.286;2022-12-07T04:43:56;25.65;;;18.77;;
40611;SDS011;26317;44.894;20.286;2022-12-07T04:46:48;30.75;;;21.88;;
40611;SDS011;26317;44.894;20.286;2022-12-07T04:49:22;27.38;;;20.52;;
40611;SDS011;26317;44.894;20.286;2022-12-07T04:51:56;25.80;;;19.38;;
40611;SDS011;26317;44.894;20.286;2022-12-07T04:54:32;29.80;;;20.90;;
40611;SDS011;26317;44.894;20.286;2022-12-07T04:57:09;30.90;;;21.55;;
40611;SDS011;26317;44.894;20.286;2022-12-07T04:59:42;26.70;;;20.58;;
40611;SDS011;26317;44.894;20.286;2022-12-07T05:02:12;24.40;;;20.40;;
40611;SDS011;26317;44.894;20.286;2022-12-07T05:04:48;27.65;;;20.80;;
40611;SDS011;26317;44.894;20.286;2022-12-07T05:07:22;29.50;;;21.52;;
40611;SDS011;26317;44.894;20.286;2022-12-07T05:09:53;30.37;;;21.63;;
40611;SDS011;26317;44.894;20.286;2022-12-07T05:12:31;32.67;;;22.55;;
40611;SDS011;26317;44.894;20.286;2022-12-07T05:15:08;30.98;;;21.88;;
40611;SDS011;26317;44.894;20.286;2022-12-07T05:17:46;31.58;;;22.65;;
40611;SDS011;26317;44.894;20.286;2022-12-07T05:20:28;28.90;;;22.70;;
40611;SDS011;26317;44.894;20.286;2022-12-07T05:23:14;32.00;;;23.35;;
40611;SDS011;26317;44.894;20.286;2022-12-07T05:25:48;30.45;;;23.38;;
40611;SDS011;26317;44.894;20.286;2022-12-07T05:28:20;34.40;;;25.58;;
40611;SDS011;26317;44.894;20.286;2022-12-07T05:31:01;38.05;;;26.33;;
40611;SDS011;26317;44.894;20.286;2022-12-07T05:33:48;36.63;;;26.67;;
40611;SDS011;26317;44.894;20.286;2022-12-07T05:36:22;40.45;;;27.20;;
40611;SDS011;26317;44.894;20.286;2022-12-07T05:39:00;34.85;;;26.40;;
40611;SDS011;26317;44.894;20.286;2022-12-07T05:41:38;38.13;;;27.08;;
40611;SDS011;26317;44.894;20.286;2022-12-07T05:44:25;38.90;;;28.10;;
40611;SDS011;26317;44.894;20.286;2022-12-07T05:47:03;37.28;;;27.15;;
40611;SDS011;26317;44.894;20.286;2022-12-07T05:49:41;40.38;;;27.42;;
40611;SDS011;26317;44.894;20.286;2022-12-07T05:52:18;43.65;;;29.67;;
40611;SDS011;26317;44.894;20.286;2022-12-07T05:55:01;43.25;;;27.13;;
40611;SDS011;26317;44.894;20.286;2022-12-07T05:57:34;37.85;;;27.92;;
40611;SDS011;26317;44.894;20.286;2022-12-07T06:00:44;34.88;;;25.98;;
40611;SDS011;26317;44.894;20.286;2022-12-07T06:03:14;34.83;;;25.48;;
40611;SDS011;26317;44.894;20.286;2022-12-07T06:05:51;37.13;;;26.27;;
40611;SDS011;26317;44.894;20.286;2022-12-07T06:08:37;34.72;;;24.15;;
40611;SDS011;26317;44.894;20.286;2022-12-07T06:11:11;33.53;;;24.50;;
40611;SDS011;26317;44.894;20.286;2022-12-07T06:13:54;38.53;;;24.42;;
40611;SDS011;26317;44.894;20.286;2022-12-07T06:16:46;36.00;;;25.17;;
40611;SDS011;26317;44.894;20.286;2022-12-07T06:21:55;33.00;;;23.08;;
40611;SDS011;26317;44.894;20.286;2022-12-07T06:24:28;27.95;;;21.95;;
40611;SDS011;26317;44.894;20.286;2022-12-07T06:27:02;33.22;;;22.27;;
40611;SDS011;26317;44.894;20.286;2022-12-07T06:29:41;27.83;;;21.13;;
40611;SDS011;26317;44.894;20.286;2022-12-07T06:32:20;28.00;;;20.80;;
40611;SDS011;26317;44.894;20.286;2022-12-07T06:34:55;33.75;;;23.42;;
40611;SDS011;26317;44.894;20.286;2022-12-07T06:37:26;32.40;;;24.20;;
40611;SDS011;26317;44.894;20.286;2022-12-07T06:40:01;31.92;;;21.77;;
40611;SDS011;26317;44.894;20.286;2022-12-07T06:42:40;27.80;;;20.75;;
40611;SDS011;26317;44.894;20.286;2022-12-07T06:45:13;27.35;;;21.05;;
40611;SDS011;26317;44.894;20.286;2022-12-07T06:47:57;25.75;;;20.63;;
40611;SDS011;26317;44.894;20.286;2022-12-07T06:50:28;25.77;;;20.25;;
40611;SDS011;26317;44.894;20.286;2022-12-07T06:55:30;27.23;;;21.45;;
40611;SDS011;26317;44.894;20.286;2022-12-07T06:58:03;24.58;;;18.90;;
40611;SDS011;26317;44.894;20.286;2022-12-07T07:00:43;25.38;;;18.02;;
40611;SDS011;26317;44.894;20.286;2022-12-07T07:03:29;20.70;;;16.63;;
40611;SDS011;26317;44.894;20.286;2022-12-07T07:06:04;35.42;;;23.80;;
40611;SDS011;26317;44.894;20.286;2022-12-07T07:08:41;35.63;;;21.20;;
40611;SDS011;26317;44.894;20.286;2022-12-07T07:11:31;27.10;;;17.40;;
40611;SDS011;26317;44.894;20.286;2022-12-07T07:14:04;34.90;;;21.45;;
40611;SDS011;26317;44.894;20.286;2022-12-07T07:16:41;27.25;;;17.02;;
40611;SDS011;26317;44.894;20.286;2022-12-07T07:19:27;53.50;;;25.67;;
40611;SDS011;26317;44.894;20.286;2022-12-07T07:22:07;43.70;;;23.73;;
40611;SDS011;26317;44.894;20.286;2022-12-07T07:24:43;51.00;;;25.45;;
40611;SDS011;26317;44.894;20.286;2022-12-07T07:27:20;63.50;;;30.13;;
40611;SDS011;26317;44.894;20.286;2022-12-07T07:30:15;27.35;;;16.73;;
40611;SDS011;26317;44.894;20.286;2022-12-07T07:32:49;16.25;;;13.25;;
40611;SDS011;26317;44.894;20.286;2022-12-07T07:38:06;18.23;;;14.27;;
40611;SDS011;26317;44.894;20.286;2022-12-07T07:40:43;16.50;;;14.18;;
40611;SDS011;26317;44.894;20.286;2022-12-07T07:43:16;17.48;;;15.40;;
40611;SDS011;26317;44.894;20.286;2022-12-07T07:45:51;21.23;;;15.35;;
40611;SDS011;26317;44.894;20.286;2022-12-07T07:48:26;19.30;;;15.85;;
40611;SDS011;26317;44.894;20.286;2022-12-07T07:51:18;25.05;;;17.30;;
40611;SDS011;26317;44.894;20.286;2022-12-07T07:53:53;22.10;;;16.15;;
40611;SDS011;26317;44.894;20.286;2022-12-07T07:56:31;19.48;;;15.73;;
40611;SDS011;26317;44.894;20.286;2022-12-07T07:59:04;21.10;;;16.15;;
40611;SDS011;26317;44.894;20.286;2022-12-07T08:01:40;19.15;;;15.38;;
40611;SDS011;26317;44.894;20.286;2022-12-07T08:04:13;21.88;;;15.77;;
40611;SDS011;26317;44.894;20.286;2022-12-07T08:07:01;19.23;;;15.00;;
40611;SDS011;26317;44.894;20.286;2022-12-07T08:09:39;17.88;;;14.18;;
40611;SDS011;26317;44.894;20.286;2022-12-07T08:12:14;15.95;;;13.82;;
40611;SDS011;26317;44.894;20.286;2022-12-07T08:14:47;16.90;;;15.07;;
40611;SDS011;26317;44.894;20.286;2022-12-07T08:17:17;26.02;;;15.95;;
40611;SDS011;26317;44.894;20.286;2022-12-07T08:19:50;27.90;;;22.25;;
40611;SDS011;26317;44.894;20.286;2022-12-07T08:25:07;24.35;;;18.73;;
40611;SDS011;26317;44.894;20.286;2022-12-07T08:27:43;21.10;;;17.30;;
40611;SDS011;26317;44.894;20.286;2022-12-07T08:30:13;18.05;;;14.88;;
40611;SDS011;26317;44.894;20.286;2022-12-07T08:32:44;20.27;;;16.52;;
40611;SDS011;26317;44.894;20.286;2022-12-07T08:35:27;20.52;;;16.20;;
40611;SDS011;26317;44.894;20.286;2022-12-07T08:41:01;20.33;;;15.70;;
40611;SDS011;26317;44.894;20.286;2022-12-07T08:43:35;18.92;;;14.60;;
40611;SDS011;26317;44.894;20.286;2022-12-07T08:46:07;17.92;;;15.85;;
40611;SDS011;26317;44.894;20.286;2022-12-07T08:48:43;19.00;;;16.13;;
40611;SDS011;26317;44.894;20.286;2022-12-07T08:51:23;17.65;;;15.35;;
40611;SDS011;26317;44.894;20.286;2022-12-07T08:54:09;24.08;;;18.60;;
40611;SDS011;26317;44.894;20.286;2022-12-07T08:56:46;20.50;;;16.38;;
40611;SDS011;26317;44.894;20.286;2022-12-07T08:59:34;23.05;;;16.77;;
40611;SDS011;26317;44.894;20.286;2022-12-07T09:02:08;22.35;;;16.83;;
40611;SDS011;26317;44.894;20.286;2022-12-07T09:04:44;23.38;;;18.67;;
40611;SDS011;26317;44.894;20.286;2022-12-07T09:07:24;29.08;;;21.45;;
40611;SDS011;26317;44.894;20.286;2022-12-07T09:10:12;28.35;;;21.92;;
40611;SDS011;26317;44.894;20.286;2022-12-07T09:12:49;30.27;;;22.73;;
40611;SDS011;26317;44.894;20.286;2022-12-07T09:15:21;26.58;;;21.45;;
40611;SDS011;26317;44.894;20.286;2022-12-07T09:17:54;27.02;;;21.13;;
40611;SDS011;26317;44.894;20.286;2022-12-07T09:20:25;27.02;;;22.40;;
40611;SDS011;26317;44.894;20.286;2022-12-07T09:23:11;21.50;;;16.77;;
40611;SDS011;26317;44.894;20.286;2022-12-07T09:25:52;22.38;;;19.33;;
40611;SDS011;26317;44.894;20.286;2022-12-07T09:28:34;20.70;;;16.80;;
40611;SDS011;26317;44.894;20.286;2022-12-07T09:31:20;17.83;;;15.50;;
40611;SDS011;26317;44.894;20.286;2022-12-07T09:34:03;18.80;;;15.05;;
40611;SDS011;26317;44.894;20.286;2022-12-07T09:36:36;20.65;;;17.10;;
40611;SDS011;26317;44.894;20.286;2022-12-07T09:39:09;20.10;;;16.33;;
40611;SDS011;26317;44.894;20.286;2022-12-07T09:41:56;19.65;;;16.08;;
40611;SDS011;26317;44.894;20.286;2022-12-07T09:44:34;16.10;;;14.37;;
40611;SDS011;26317;44.894;20.286;2022-12-07T09:47:19;16.15;;;13.82;;
40611;SDS011;26317;44.894;20.286;2022-12-07T09:49:52;17.45;;;14.85;;
40611;SDS011;26317;44.894;20.286;2022-12-07T09:52:28;19.08;;;14.57;;
40611;SDS011;26317;44.894;20.286;2022-12-07T09:55:08;18.85;;;14.23;;
40611;SDS011;26317;44.894;20.286;2022-12-07T09:57:54;21.05;;;16.02;;
40611;SDS011;26317;44.894;20.286;2022-12-07T10:00:29;16.73;;;13.55;;
40611;SDS011;26317;44.894;20.286;2022-12-07T10:03:25;19.42;;;15.30;;
40611;SDS011;26317;44.894;20.286;2022-12-07T10:05:56;16.80;;;13.50;;
40611;SDS011;26317;44.894;20.286;2022-12-07T10:08:29;16.75;;;13.70;;
40611;SDS011;26317;44.894;20.286;2022-12-07T10:11:07;15.75;;;13.77;;
40611;SDS011;26317;44.894;20.286;2022-12-07T10:13:51;19.88;;;14.68;;
40611;SDS011;26317;44.894;20.286;2022-12-07T10:19:20;16.08;;;13.80;;
40611;SDS011;26317;44.894;20.286;2022-12-07T10:22:10;21.75;;;17.15;;
40611;SDS011;26317;44.894;20.286;2022-12-07T10:24:45;19.48;;;16.40;;
40611;SDS011;26317;44.894;20.286;2022-12-07T10:32:57;20.05;;;16.15;;
40611;SDS011;26317;44.894;20.286;2022-12-07T10:35:46;21.45;;;16.50;;
40611;SDS011;26317;44.894;20.286;2022-12-07T10:38:24;20.45;;;17.67;;
40611;SDS011;26317;44.894;20.286;2022-12-07T10:41:03;21.52;;;16.85;;
40611;SDS011;26317;44.894;20.286;2022-12-07T10:49:35;26.57;;;20.37;;
40611;SDS011;26317;44.894;20.286;2022-12-07T10:52:39;26.48;;;19.98;;
40611;SDS011;26317;44.894;20.286;2022-12-07T10:55:37;31.10;;;25.80;;
40611;SDS011;26317;44.894;20.286;2022-12-07T10:58:19;28.83;;;25.25;;
40611;SDS011;26317;44.894;20.286;2022-12-07T11:01:28;35.53;;;29.10;;
40611;SDS011;26317;44.894;20.286;2022-12-07T11:04:23;37.28;;;30.73;;
40611;SDS011;26317;44.894;20.286;2022-12-07T11:07:10;41.63;;;32.47;;
40611;SDS011;26317;44.894;20.286;2022-12-07T11:10:05;39.00;;;30.45;;
40611;SDS011;26317;44.894;20.286;2022-12-07T11:13:02;46.55;;;37.55;;
40611;SDS011;26317;44.894;20.286;2022-12-07T11:15:57;43.10;;;32.70;;
40611;SDS011;26317;44.894;20.286;2022-12-07T11:19:06;35.35;;;26.45;;
40611;SDS011;26317;44.894;20.286;2022-12-07T11:22:02;34.78;;;27.98;;
40611;SDS011;26317;44.894;20.286;2022-12-07T11:24:44;29.98;;;23.13;;
40611;SDS011;26317;44.894;20.286;2022-12-07T11:27:36;34.15;;;28.58;;
40611;SDS011;26317;44.894;20.286;2022-12-07T11:30:26;37.22;;;27.83;;
40611;SDS011;26317;44.894;20.286;2022-12-07T11:36:07;31.58;;;25.55;;
40611;SDS011;26317;44.894;20.286;2022-12-07T11:38:59;30.50;;;24.15;;
40611;SDS011;26317;44.894;20.286;2022-12-07T11:41:43;28.90;;;23.80;;
40611;SDS011;26317;44.894;20.286;2022-12-07T11:44:29;30.92;;;22.67;;
40611;SDS011;26317;44.894;20.286;2022-12-07T11:47:10;26.42;;;20.98;;
40611;SDS011;26317;44.894;20.286;2022-12-07T11:50:10;26.35;;;21.65;;
40611;SDS011;26317;44.894;20.286;2022-12-07T11:53:00;27.73;;;22.27;;
40611;SDS011;26317;44.894;20.286;2022-12-07T11:55:57;34.15;;;26.15;;
40611;SDS011;26317;44.894;20.286;2022-12-07T11:58:46;33.70;;;25.48;;
40611;SDS011;26317;44.894;20.286;2022-12-07T12:01:35;26.58;;;22.75;;
40611;SDS011;26317;44.894;20.286;2022-12-07T12:04:34;27.27;;;23.05;;
40611;SDS011;26317;44.894;20.286;2022-12-07T12:07:23;29.13;;;22.33;;
40611;SDS011;26317;44.894;20.286;2022-12-07T12:09:58;29.65;;;24.45;;
40611;SDS011;26317;44.894;20.286;2022-12-07T12:12:46;27.60;;;23.33;;
40611;SDS011;26317;44.894;20.286;2022-12-07T12:16:04;29.88;;;23.73;;
40611;SDS011;26317;44.894;20.286;2022-12-07T12:18:59;31.17;;;24.10;;
40611;SDS011;26317;44.894;20.286;2022-12-07T12:22:15;30.73;;;26.08;;
40611;SDS011;26317;44.894;20.286;2022-12-07T12:24:58;30.98;;;26.20;;
40611;SDS011;26317;44.894;20.286;2022-12-07T12:27:37;30.05;;;25.27;;
40611;SDS011;26317;44.894;20.286;2022-12-07T12:36:17;28.73;;;24.20;;
40611;SDS011;26317;44.894;20.286;2022-12-07T12:39:07;26.38;;;22.08;;
40611;SDS011;26317;44.894;20.286;2022-12-07T12:41:56;25.70;;;22.65;;
40611;SDS011;26317;44.894;20.286;2022-12-07T12:47:54;31.33;;;25.70;;
40611;SDS011;26317;44.894;20.286;2022-12-07T12:50:50;26.38;;;23.42;;
40611;SDS011;26317;44.894;20.286;2022-12-07T12:54:03;25.23;;;22.48;;
40611;SDS011;26317;44.894;20.286;2022-12-07T12:56:45;26.75;;;22.60;;
40611;SDS011;26317;44.894;20.286;2022-12-07T12:59:24;26.20;;;21.50;;
40611;SDS011;26317;44.894;20.286;2022-12-07T13:02:14;21.83;;;19.48;;
40611;SDS011;26317;44.894;20.286;2022-12-07T13:04:57;24.00;;;19.10;;
40611;SDS011;26317;44.894;20.286;2022-12-07T13:10:44;19.00;;;16.60;;
40611;SDS011;26317;44.894;20.286;2022-12-07T13:13:34;23.27;;;17.77;;
40611;SDS011;26317;44.894;20.286;2022-12-07T13:22:34;19.58;;;17.38;;
40611;SDS011;26317;44.894;20.286;2022-12-07T13:25:30;17.73;;;15.50;;
40611;SDS011;26317;44.894;20.286;2022-12-07T13:28:38;21.65;;;17.83;;
40611;SDS011;26317;44.894;20.286;2022-12-07T13:31:30;25.50;;;21.88;;
40611;SDS011;26317;44.894;20.286;2022-12-07T13:34:26;30.88;;;25.65;;
40611;SDS011;26317;44.894;20.286;2022-12-07T13:37:09;32.03;;;25.17;;
40611;SDS011;26317;44.894;20.286;2022-12-07T13:39:49;30.77;;;25.98;;
40611;SDS011;26317;44.894;20.286;2022-12-07T13:42:34;30.92;;;26.15;;
40611;SDS011;26317;44.894;20.286;2022-12-07T13:45:20;32.65;;;27.33;;
40611;SDS011;26317;44.894;20.286;2022-12-07T13:48:15;37.97;;;33.40;;
40611;SDS011;26317;44.894;20.286;2022-12-07T13:51:01;43.33;;;38.08;;
40611;SDS011;26317;44.894;20.286;2022-12-07T13:53:50;26.50;;;22.30;;
40611;SDS011;26317;44.894;20.286;2022-12-07T13:59:15;36.67;;;31.23;;
40611;SDS011;26317;44.894;20.286;2022-12-07T14:05:06;33.07;;;28.23;;
40611;SDS011;26317;44.894;20.286;2022-12-07T14:07:53;49.00;;;37.75;;
40611;SDS011;26317;44.894;20.286;2022-12-07T14:10:38;39.00;;;31.63;;
40611;SDS011;26317;44.894;20.286;2022-12-07T14:13:26;34.85;;;28.45;;
40611;SDS011;26317;44.894;20.286;2022-12-07T14:16:16;44.88;;;35.72;;
40611;SDS011;26317;44.894;20.286;2022-12-07T14:25:09;55.45;;;40.40;;
40611;SDS011;26317;44.894;20.286;2022-12-07T14:28:01;48.05;;;37.72;;
40611;SDS011;26317;44.894;20.286;2022-12-07T14:30:58;45.90;;;37.70;;
40611;SDS011;26317;44.894;20.286;2022-12-07T14:33:30;63.03;;;46.92;;
40611;SDS011;26317;44.894;20.286;2022-12-07T14:36:02;46.78;;;39.13;;
40611;SDS011;26317;44.894;20.286;2022-12-07T14:38:43;52.58;;;41.10;;
40611;SDS011;26317;44.894;20.286;2022-12-07T14:41:15;51.08;;;40.58;;
40611;SDS011;26317;44.894;20.286;2022-12-07T14:44:20;51.50;;;41.25;;
40611;SDS011;26317;44.894;20.286;2022-12-07T14:46:52;58.10;;;44.58;;
40611;SDS011;26317;44.894;20.286;2022-12-07T14:49:29;55.63;;;44.67;;
40611;SDS011;26317;44.894;20.286;2022-12-07T14:52:06;60.70;;;49.45;;
40611;SDS011;26317;44.894;20.286;2022-12-07T14:54:52;64.88;;;54.28;;
40611;SDS011;26317;44.894;20.286;2022-12-07T14:57:24;67.60;;;52.20;;
40611;SDS011;26317;44.894;20.286;2022-12-07T15:00:03;69.03;;;53.13;;
40611;SDS011;26317;44.894;20.286;2022-12-07T15:02:48;54.40;;;45.65;;
40611;SDS011;26317;44.894;20.286;2022-12-07T15:05:18;58.50;;;46.35;;
40611;SDS011;26317;44.894;20.286;2022-12-07T15:07:58;51.38;;;41.38;;
40611;SDS011;26317;44.894;20.286;2022-12-07T15:10:45;61.63;;;43.97;;
40611;SDS011;26317;44.894;20.286;2022-12-07T15:13:30;54.03;;;44.40;;
40611;SDS011;26317;44.894;20.286;2022-12-07T15:16:22;55.95;;;43.30;;
40611;SDS011;26317;44.894;20.286;2022-12-07T15:19:05;60.90;;;47.53;;
40611;SDS011;26317;44.894;20.286;2022-12-07T15:21:43;63.25;;;51.92;;
40611;SDS011;26317;44.894;20.286;2022-12-07T15:24:19;60.20;;;50.67;;
40611;SDS011;26317;44.894;20.286;2022-12-07T15:27:04;74.25;;;58.05;;
40611;SDS011;26317;44.894;20.286;2022-12-07T15:29:37;72.60;;;55.30;;
40611;SDS011;26317;44.894;20.286;2022-12-07T15:32:23;89.88;;;71.55;;
40611;SDS011;26317;44.894;20.286;2022-12-07T15:34:52;74.32;;;57.78;;
40611;SDS011;26317;44.894;20.286;2022-12-07T15:37:30;62.55;;;47.08;;
40611;SDS011;26317;44.894;20.286;2022-12-07T15:40:00;52.97;;;42.25;;
40611;SDS011;26317;44.894;20.286;2022-12-07T15:42:51;57.95;;;48.38;;
40611;SDS011;26317;44.894;20.286;2022-12-07T15:45:24;55.78;;;45.65;;
40611;SDS011;26317;44.894;20.286;2022-12-07T15:47:52;58.22;;;48.60;;
40611;SDS011;26317;44.894;20.286;2022-12-07T15:50:29;64.53;;;53.53;;
40611;SDS011;26317;44.894;20.286;2022-12-07T15:53:12;59.05;;;46.10;;
40611;SDS011;26317;44.894;20.286;2022-12-07T15:55:51;64.10;;;52.55;;
40611;SDS011;26317;44.894;20.286;2022-12-07T15:58:40;59.53;;;48.42;;
40611;SDS011;26317;44.894;20.286;2022-12-07T16:01:23;54.95;;;44.80;;
40611;SDS011;26317;44.894;20.286;2022-12-07T16:03:57;55.80;;;46.40;;
40611;SDS011;26317;44.894;20.286;2022-12-07T16:06:33;56.63;;;43.50;;
40611;SDS011;26317;44.894;20.286;2022-12-07T16:09:14;53.42;;;43.25;;
40611;SDS011;26317;44.894;20.286;2022-12-07T16:11:56;53.78;;;43.65;;
40611;SDS011;26317;44.894;20.286;2022-12-07T16:14:42;51.13;;;42.08;;
40611;SDS011;26317;44.894;20.286;2022-12-07T16:17:16;50.65;;;41.22;;
40611;SDS011;26317;44.894;20.286;2022-12-07T16:19:50;51.33;;;42.03;;
40611;SDS011;26317;44.894;20.286;2022-12-07T16:22:24;54.58;;;44.75;;
40611;SDS011;26317;44.894;20.286;2022-12-07T16:24:54;49.72;;;44.38;;
40611;SDS011;26317;44.894;20.286;2022-12-07T16:27:29;45.40;;;40.72;;
40611;SDS011;26317;44.894;20.286;2022-12-07T16:30:19;54.83;;;45.97;;
40611;SDS011;26317;44.894;20.286;2022-12-07T16:32:55;46.15;;;41.17;;
40611;SDS011;26317;44.894;20.286;2022-12-07T16:35:28;41.40;;;37.08;;
40611;SDS011;26317;44.894;20.286;2022-12-07T16:38:06;45.47;;;39.72;;
40611;SDS011;26317;44.894;20.286;2022-12-07T16:40:42;49.58;;;42.70;;
40611;SDS011;26317;44.894;20.286;2022-12-07T16:43:21;43.28;;;37.85;;